createdAt,value
2023-02-08T00:01:54.334Z,88.01
2023-02-08T00:04:22.890Z,87.67
2023-02-08T00:06:57.382Z,86.36
2023-02-08T00:12:18.860Z,86.21
2023-02-08T00:14:47.596Z,86.33
2023-02-08T00:17:16.131Z,86.05
2023-02-08T00:19:44.947Z,86.63
2023-02-08T00:22:18.044Z,86.25
2023-02-08T00:24:46.938Z,85.88
2023-02-08T00:27:16.105Z,87.04
2023-02-08T00:29:44.975Z,86.22
2023-02-08T00:32:13.876Z,86.67
2023-02-08T00:34:42.651Z,86.15
2023-02-08T00:37:11.179Z,85.47
2023-02-08T00:39:43.530Z,85.99
2023-02-08T00:42:12.661Z,85.42
2023-02-08T00:44:41.391Z,86.54
2023-02-08T00:47:09.918Z,86.47
2023-02-08T00:49:45.756Z,85.30
2023-02-08T00:52:14.787Z,86.05
2023-02-08T00:54:48.464Z,85.49
2023-02-08T00:57:17.257Z,84.57
2023-02-08T00:59:45.903Z,85.15
2023-02-08T01:02:14.334Z,85.16
2023-02-08T01:04:43.093Z,84.09
2023-02-08T01:07:13.707Z,83.55
2023-02-08T01:09:46.898Z,84.11
2023-02-08T01:12:15.411Z,85.04
2023-02-08T01:14:44.217Z,84.14
2023-02-08T01:17:12.908Z,84.67
2023-02-08T01:19:42.588Z,85.46
2023-02-08T01:22:11.142Z,85.91
2023-02-08T01:24:40.104Z,85.43
2023-02-08T01:27:10.046Z,84.65
2023-02-08T01:29:39.160Z,85.60
2023-02-08T01:32:07.628Z,85.66
2023-02-08T01:34:36.202Z,85.75
2023-02-08T01:37:05.317Z,84.86
2023-02-08T01:39:34.375Z,85.48
2023-02-08T01:42:05.938Z,84.47
2023-02-08T01:48:48.440Z,85.21
2023-02-08T01:51:20.559Z,84.83
2023-02-08T01:53:50.489Z,85.79
2023-02-08T01:56:32.929Z,85.56
2023-02-08T01:59:03.805Z,86.06
2023-02-08T02:01:33.043Z,86.04
2023-02-08T02:04:04.591Z,86.63
2023-02-08T02:06:36.569Z,86.48
2023-02-08T02:09:11.685Z,86.55
2023-02-08T02:11:41.050Z,87.46
2023-02-08T02:14:10.310Z,87.79
2023-02-08T02:16:38.907Z,87.45
2023-02-08T02:19:17.666Z,87.62
2023-02-08T02:21:53.239Z,87.61
2023-02-08T02:24:44.169Z,87.51
2023-02-08T02:27:22.697Z,87.78
2023-02-08T02:30:35.820Z,87.72
2023-02-08T02:33:33.337Z,87.50
2023-02-08T02:36:05.119Z,87.27
2023-02-08T02:38:42.409Z,87.02
2023-02-08T02:41:41.433Z,86.60
2023-02-08T02:44:16.910Z,86.13
2023-02-08T02:46:49.622Z,86.63
2023-02-08T02:49:24.407Z,87.46
2023-02-08T02:51:58.545Z,88.27
2023-02-08T02:54:32.958Z,88.23
2023-02-08T02:57:05.912Z,88.77
2023-02-08T02:59:34.890Z,88.04
2023-02-08T03:02:04.274Z,88.17
2023-02-08T03:04:52.070Z,88.89
2023-02-08T03:07:33.612Z,89.26
2023-02-08T03:10:08.331Z,88.54
2023-02-08T03:12:41.632Z,89.08
2023-02-08T03:15:18.454Z,89.03
2023-02-08T03:17:59.341Z,89.28
2023-02-08T03:20:31.806Z,89.79
2023-02-08T03:23:03.223Z,91.21
2023-02-08T03:25:37.907Z,91.17
2023-02-08T03:28:11.342Z,91.02
2023-02-08T03:30:47.092Z,91.75
2023-02-08T03:33:19.031Z,92.06
2023-02-08T03:35:53.723Z,92.25
2023-02-08T03:38:26.228Z,92.16
2023-02-08T03:40:56.621Z,92.98
2023-02-08T03:43:45.602Z,92.93
2023-02-08T03:46:20.094Z,92.82
2023-02-08T03:48:55.122Z,93.03
2023-02-08T03:51:28.110Z,92.92
2023-02-08T03:53:57.664Z,93.28
2023-02-08T03:56:33.541Z,93.37
2023-02-08T03:59:03.947Z,92.52
2023-02-08T04:01:37.092Z,92.12
2023-02-08T04:04:09.534Z,91.75
2023-02-08T04:06:40.516Z,91.95
2023-02-08T04:09:09.773Z,91.82
2023-02-08T04:11:44.697Z,91.98
2023-02-08T04:14:13.601Z,91.89
2023-02-08T04:16:41.975Z,91.75
2023-02-08T04:19:10.501Z,92.27
2023-02-08T04:21:40.810Z,91.67
2023-02-08T04:24:09.521Z,92.02
2023-02-08T04:26:38.624Z,92.90
2023-02-08T04:29:07.298Z,93.21
2023-02-08T04:31:47.152Z,93.51
2023-02-08T04:34:17.515Z,94.16
2023-02-08T04:36:47.400Z,94.35
2023-02-08T04:39:15.878Z,94.53
2023-02-08T04:41:44.452Z,95.04
2023-02-08T04:44:12.920Z,94.97
2023-02-08T04:46:41.579Z,95.31
2023-02-08T04:49:10.820Z,95.58
2023-02-08T04:51:39.609Z,95.52
2023-02-08T04:54:09.664Z,96.03
2023-02-08T04:56:38.955Z,95.92
2023-02-08T04:59:07.588Z,97.48
2023-02-08T05:01:36.255Z,97.34
2023-02-08T05:04:05.584Z,97.38
2023-02-08T05:06:33.948Z,97.16
2023-02-08T05:09:04.224Z,96.49
2023-02-08T05:11:34.377Z,96.89
2023-02-08T05:14:02.872Z,96.68
2023-02-08T05:16:31.670Z,96.44
2023-02-08T05:19:00.469Z,97.04
2023-02-08T05:21:31.984Z,96.83
2023-02-08T05:24:00.463Z,96.74
2023-02-08T05:26:31.202Z,96.25
2023-02-08T05:29:01.215Z,95.87
2023-02-08T05:31:30.311Z,95.95
2023-02-08T05:33:59.348Z,96.04
2023-02-08T05:36:27.822Z,95.93
2023-02-08T05:38:56.849Z,96.20
2023-02-08T05:41:25.829Z,96.20
2023-02-08T05:44:02.598Z,96.23
2023-02-08T05:46:31.403Z,96.23
2023-02-08T05:49:00.307Z,95.97
2023-02-08T05:51:28.832Z,96.15
2023-02-08T05:53:58.527Z,95.73
2023-02-08T05:56:28.205Z,95.91
2023-02-08T05:58:57.130Z,95.92
2023-02-08T06:01:28.739Z,95.80
2023-02-08T06:04:00.281Z,95.74
2023-02-08T06:06:28.977Z,95.83
2023-02-08T06:08:57.615Z,95.85
2023-02-08T06:11:28.172Z,95.70
2023-02-08T06:13:59.107Z,96.55
2023-02-08T06:16:29.121Z,96.39
2023-02-08T06:18:57.926Z,96.41
2023-02-08T06:21:26.931Z,96.15
2023-02-08T06:23:55.789Z,96.13
2023-02-08T06:26:49.767Z,95.99
2023-02-08T06:29:18.806Z,96.44
2023-02-08T06:31:49.133Z,95.90
2023-02-08T06:34:17.731Z,95.83
2023-02-08T06:36:46.876Z,95.70
2023-02-08T06:39:15.557Z,95.76
2023-02-08T06:41:44.440Z,96.37
2023-02-08T06:44:13.080Z,95.86
2023-02-08T06:46:41.722Z,95.70
2023-02-08T06:49:13.113Z,95.55
2023-02-08T06:51:41.798Z,95.74
2023-02-08T06:54:13.688Z,95.26
2023-02-08T06:56:44.898Z,95.44
2023-02-08T06:59:15.721Z,95.44
2023-02-08T07:01:44.452Z,95.60
2023-02-08T07:04:48.324Z,95.65
2023-02-08T07:07:18.458Z,95.59
2023-02-08T07:09:47.110Z,95.70
2023-02-08T07:12:15.891Z,95.81
2023-02-08T07:14:45.129Z,95.55
2023-02-08T07:17:14.846Z,95.10
2023-02-08T07:19:43.153Z,94.57
2023-02-08T07:22:13.491Z,94.12
2023-02-08T07:24:42.974Z,93.27
2023-02-08T07:27:18.305Z,93.34
2023-02-08T07:30:10.552Z,92.16
2023-02-08T07:33:04.817Z,91.09
2023-02-08T07:35:48.318Z,90.42
2023-02-08T07:38:20.719Z,89.02
2023-02-08T07:40:52.223Z,88.20
2023-02-08T07:43:20.796Z,88.11
2023-02-08T07:45:50.036Z,87.28
2023-02-08T07:48:18.519Z,86.69
2023-02-08T07:50:49.794Z,86.37
2023-02-08T07:53:19.755Z,86.11
2023-02-08T07:55:50.802Z,86.01
2023-02-08T07:58:19.445Z,85.50
2023-02-08T08:00:49.104Z,84.66
2023-02-08T08:03:17.746Z,82.48
2023-02-08T08:05:46.814Z,82.55
2023-02-08T08:08:18.629Z,80.76
2023-02-08T08:10:49.689Z,81.69
2023-02-08T08:13:18.106Z,80.07
2023-02-08T08:15:46.991Z,79.06
2023-02-08T08:18:15.865Z,78.52
2023-02-08T08:20:44.637Z,78.64
2023-02-08T08:23:13.383Z,77.08
2023-02-08T08:25:42.309Z,75.37
2023-02-08T08:28:12.156Z,73.68
2023-02-08T08:30:44.987Z,71.86
2023-02-08T08:33:14.408Z,72.30
2023-02-08T08:35:47.551Z,71.15
2023-02-08T08:38:18.611Z,70.73
2023-02-08T08:40:47.357Z,64.45
2023-02-08T08:43:17.680Z,54.69
2023-02-08T08:45:46.980Z,49.03
2023-02-08T08:48:16.089Z,46.04
2023-02-08T08:50:45.109Z,44.95
2023-02-08T08:53:14.073Z,42.35
2023-02-08T08:55:44.347Z,41.31
2023-02-08T08:58:14.411Z,41.25
2023-02-08T09:00:44.427Z,37.86
2023-02-08T09:03:13.420Z,37.15
2023-02-08T09:05:42.537Z,36.55
2023-02-08T09:08:14.004Z,36.69
2023-02-08T09:10:44.720Z,35.45
2023-02-08T09:13:19.704Z,35.52
2023-02-08T09:15:50.310Z,33.82
2023-02-08T09:18:19.075Z,34.45
2023-02-08T09:20:48.356Z,32.22
2023-02-08T09:23:17.271Z,30.69
2023-02-08T09:25:45.977Z,31.36
2023-02-08T09:28:14.621Z,32.70
2023-02-08T09:30:46.616Z,30.91
2023-02-08T09:33:16.800Z,30.49
2023-02-08T09:35:45.650Z,31.33
2023-02-08T09:38:14.772Z,31.08
2023-02-08T09:40:50.028Z,31.28
2023-02-08T09:43:22.662Z,31.17
2023-02-08T09:45:59.967Z,31.02
2023-02-08T09:48:35.797Z,30.72
2023-02-08T09:51:12.646Z,30.51
2023-02-08T09:53:54.843Z,30.86
2023-02-08T09:56:29.258Z,30.52
2023-02-08T09:59:02.578Z,30.21
2023-02-08T10:01:34.319Z,29.46
2023-02-08T10:04:09.123Z,29.49
2023-02-08T10:06:58.757Z,29.38
2023-02-08T10:09:29.863Z,29.32
2023-02-08T10:12:08.492Z,28.84
2023-02-08T10:15:01.033Z,28.22
2023-02-08T10:17:41.211Z,27.72
2023-02-08T10:20:28.405Z,27.44
2023-02-08T10:23:05.769Z,27.03
2023-02-08T10:25:48.422Z,27.67
2023-02-08T10:28:30.536Z,27.51
2023-02-08T10:31:04.567Z,27.71
2023-02-08T10:33:38.077Z,26.39
2023-02-08T10:36:15.223Z,27.30
2023-02-08T10:38:47.184Z,26.95
2023-02-08T10:41:35.136Z,28.01
2023-02-08T10:44:07.502Z,27.83
2023-02-08T10:46:41.980Z,28.28
2023-02-08T10:49:34.072Z,27.03
2023-02-08T10:52:04.435Z,27.87
2023-02-08T10:54:32.970Z,26.58
2023-02-08T10:57:04.752Z,25.07
2023-02-08T10:59:35.610Z,26.16
2023-02-08T11:02:06.836Z,27.96
2023-02-08T11:04:35.403Z,27.99
2023-02-08T11:07:21.286Z,26.45
2023-02-08T11:09:49.929Z,29.20
2023-02-08T11:12:20.890Z,32.53
2023-02-08T11:14:51.010Z,32.94
2023-02-08T11:17:30.657Z,30.52
2023-02-08T11:20:02.574Z,29.71
2023-02-08T11:22:34.703Z,31.14
2023-02-08T11:25:05.636Z,32.86
2023-02-08T11:27:41.552Z,35.08
2023-02-08T11:30:24.798Z,38.83
2023-02-08T11:33:19.620Z,40.09
2023-02-08T11:36:08.123Z,41.71
2023-02-08T11:38:45.230Z,38.31
2023-02-08T11:41:20.023Z,38.78
2023-02-08T11:43:57.672Z,40.44
2023-02-08T11:46:27.738Z,41.78
2023-02-08T11:48:57.191Z,42.82
2023-02-08T11:51:28.934Z,43.96
2023-02-08T11:54:00.728Z,45.05
2023-02-08T11:56:46.880Z,45.18
2023-02-08T11:59:24.043Z,44.50
2023-02-08T12:01:58.124Z,42.79
2023-02-08T12:04:26.866Z,41.48
2023-02-08T12:07:15.525Z,39.22
2023-02-08T12:10:20.084Z,35.06
2023-02-08T12:13:12.687Z,33.15
2023-02-08T12:15:57.764Z,34.44
2023-02-08T12:18:44.728Z,36.42
2023-02-08T12:21:20.165Z,38.18
2023-02-08T12:23:56.073Z,40.75
2023-02-08T12:26:40.353Z,40.80
2023-02-08T12:29:19.900Z,41.35
2023-02-08T12:32:01.988Z,41.18
2023-02-08T12:34:44.517Z,36.66
2023-02-08T12:37:40.906Z,36.55
2023-02-08T12:40:36.685Z,35.42
2023-02-08T12:43:14.977Z,34.13
2023-02-08T12:46:12.541Z,32.89
2023-02-08T12:48:58.746Z,30.62
2023-02-08T12:51:32.914Z,31.65
2023-02-08T12:54:06.322Z,30.33
2023-02-08T12:56:37.425Z,30.96
2023-02-08T12:59:13.530Z,31.21
2023-02-08T13:01:46.714Z,31.07
2023-02-08T13:04:21.765Z,30.49
2023-02-08T13:06:53.597Z,30.51
2023-02-08T13:09:35.855Z,30.40
2023-02-08T13:12:08.548Z,28.31
2023-02-08T13:14:41.969Z,28.97
2023-02-08T13:17:20.072Z,28.59
2023-02-08T13:20:00.565Z,29.06
2023-02-08T13:22:33.254Z,28.54
2023-02-08T13:25:08.437Z,27.52
2023-02-08T13:27:37.565Z,28.51
2023-02-08T13:30:08.936Z,27.51
2023-02-08T13:32:44.088Z,27.80
2023-02-08T13:35:19.403Z,27.24
2023-02-08T13:37:52.622Z,27.81
2023-02-08T13:40:28.420Z,28.14
2023-02-08T13:43:01.122Z,27.84
2023-02-08T13:45:33.145Z,27.98
2023-02-08T13:48:06.105Z,28.01
2023-02-08T13:50:46.942Z,28.32
2023-02-08T13:53:17.680Z,29.26
2023-02-08T13:56:09.049Z,29.33
2023-02-08T13:59:05.943Z,28.18
2023-02-08T14:02:27.235Z,28.74
2023-02-08T14:05:15.879Z,29.55
2023-02-08T14:07:46.083Z,28.12
2023-02-08T14:10:41.442Z,30.16
2023-02-08T14:13:25.160Z,30.32
2023-02-08T14:16:25.046Z,30.11
2023-02-08T14:18:54.635Z,29.68
2023-02-08T14:21:32.217Z,29.97
2023-02-08T14:24:03.609Z,29.79
2023-02-08T14:26:32.811Z,30.40
2023-02-08T14:29:03.576Z,29.47
2023-02-08T14:31:41.183Z,30.24
2023-02-08T14:34:23.081Z,32.10
2023-02-08T14:37:06.224Z,33.04
2023-02-08T14:39:37.605Z,34.56
2023-02-08T14:42:09.049Z,36.39
2023-02-08T14:44:58.516Z,36.90
2023-02-08T14:48:08.079Z,37.55
2023-02-08T14:50:51.773Z,36.77
2023-02-08T14:53:27.193Z,37.09
2023-02-08T14:55:59.910Z,38.25
2023-02-08T14:58:31.820Z,38.53
2023-02-08T15:01:03.948Z,37.43
2023-02-08T15:03:34.097Z,36.52
2023-02-08T15:06:17.212Z,37.26
2023-02-08T15:08:51.204Z,37.74
2023-02-08T15:11:27.614Z,38.29
2023-02-08T15:14:02.210Z,39.22
2023-02-08T15:16:34.507Z,38.60
2023-02-08T15:19:04.849Z,37.72
2023-02-08T15:21:36.918Z,39.78
2023-02-08T15:24:15.784Z,41.85
2023-02-08T15:26:48.582Z,44.54
2023-02-08T15:29:26.173Z,48.09
2023-02-08T15:32:01.766Z,50.83
2023-02-08T15:34:30.644Z,51.49
2023-02-08T15:37:00.266Z,52.81
2023-02-08T15:39:36.141Z,53.79
2023-02-08T15:42:07.655Z,54.60
2023-02-08T15:44:36.667Z,54.94
2023-02-08T15:47:06.844Z,57.04
2023-02-08T15:49:37.963Z,58.27
2023-02-08T15:52:08.083Z,58.30
2023-02-08T15:54:38.138Z,58.67
2023-02-08T15:57:09.717Z,58.99
2023-02-08T15:59:40.737Z,59.77
2023-02-08T16:02:35.978Z,61.79
2023-02-08T16:05:14.204Z,61.92
2023-02-08T16:07:47.783Z,62.20
2023-02-08T16:10:26.972Z,62.78
2023-02-08T16:13:02.775Z,62.74
2023-02-08T16:15:45.685Z,63.82
2023-02-08T16:18:36.356Z,64.53
2023-02-08T16:21:07.816Z,64.52
2023-02-08T16:23:40.733Z,65.36
2023-02-08T16:26:19.526Z,66.07
2023-02-08T16:28:55.118Z,66.49
2023-02-08T16:31:30.328Z,66.94
2023-02-08T16:34:01.638Z,67.78
2023-02-08T16:36:36.892Z,68.02
2023-02-08T16:39:48.209Z,67.92
2023-02-08T16:42:36.974Z,68.41
2023-02-08T16:45:23.521Z,68.47
2023-02-08T16:47:54.368Z,68.99
2023-02-08T16:50:24.989Z,68.76
2023-02-08T16:52:56.122Z,69.65
2023-02-08T16:55:26.843Z,69.30
2023-02-08T16:57:58.901Z,69.86
2023-02-08T17:00:29.642Z,69.72
2023-02-08T17:02:59.238Z,69.61
2023-02-08T17:05:30.134Z,70.53
2023-02-08T17:07:58.948Z,70.93
2023-02-08T17:10:29.316Z,70.73
2023-02-08T17:13:17.402Z,71.63
2023-02-08T17:15:49.650Z,71.97
2023-02-08T17:18:18.318Z,72.05
2023-02-08T17:20:47.677Z,71.93
2023-02-08T17:23:18.501Z,72.25
2023-02-08T17:25:50.201Z,73.07
2023-02-08T17:28:23.069Z,73.58
2023-02-08T17:30:53.372Z,72.99
2023-02-08T17:33:22.063Z,73.13
2023-02-08T17:35:54.120Z,73.23
2023-02-08T17:38:28.841Z,74.00
2023-02-08T17:41:00.470Z,73.78
2023-02-08T17:43:30.855Z,74.50
2023-02-08T17:46:01.321Z,74.33
2023-02-08T17:48:30.609Z,74.79
2023-02-08T17:51:03.074Z,74.88
2023-02-08T17:53:33.340Z,75.43
2023-02-08T17:56:02.892Z,75.53
2023-02-08T17:58:33.146Z,75.88
2023-02-08T18:01:02.116Z,75.47
2023-02-08T18:03:31.161Z,76.13
2023-02-08T18:06:01.285Z,76.57
2023-02-08T18:08:30.375Z,76.62
2023-02-08T18:11:04.839Z,76.93
2023-02-08T18:13:41.100Z,77.82
2023-02-08T18:16:10.914Z,77.83
2023-02-08T18:18:39.766Z,77.62
2023-02-08T18:21:13.871Z,78.62
2023-02-08T18:23:43.517Z,78.91
2023-02-08T18:26:14.642Z,79.10
2023-02-08T18:28:45.429Z,78.74
2023-02-08T18:31:20.420Z,78.61
2023-02-08T18:33:50.936Z,79.17
2023-02-08T18:36:20.854Z,79.57
2023-02-08T18:38:51.575Z,79.74
2023-02-08T18:41:23.445Z,79.43
2023-02-08T18:43:55.145Z,79.90
2023-02-08T18:46:28.542Z,79.64
2023-02-08T18:48:58.250Z,79.95
2023-02-08T18:51:31.419Z,80.10
2023-02-08T18:54:00.898Z,80.20
2023-02-08T18:56:30.017Z,80.27
2023-02-08T18:59:01.099Z,80.14
2023-02-08T19:01:32.658Z,80.14
2023-02-08T19:04:02.507Z,80.11
2023-02-08T19:06:32.832Z,80.67
2023-02-08T19:09:05.114Z,80.73
2023-02-08T19:11:35.786Z,80.43
2023-02-08T19:14:07.816Z,80.30
2023-02-08T19:16:38.229Z,81.17
2023-02-08T19:19:08.198Z,80.41
2023-02-08T19:21:37.599Z,80.50
2023-02-08T19:24:07.316Z,80.89
2023-02-08T19:26:44.455Z,80.63
2023-02-08T19:29:22.138Z,80.49
2023-02-08T19:31:54.950Z,81.23
2023-02-08T19:34:25.203Z,80.86
2023-02-08T19:36:55.289Z,80.57
2023-02-08T19:39:26.120Z,80.79
2023-02-08T19:41:55.182Z,81.20
2023-02-08T19:44:26.447Z,80.39
2023-02-08T19:46:57.044Z,81.12
2023-02-08T19:49:27.537Z,80.81
2023-02-08T19:51:56.822Z,81.39
2023-02-08T19:54:28.994Z,81.41
2023-02-08T19:56:58.661Z,80.95
2023-02-08T19:59:34.105Z,80.91
2023-02-08T20:02:11.821Z,80.51
2023-02-08T20:04:40.993Z,80.51
2023-02-08T20:07:10.589Z,80.46
2023-02-08T20:09:39.614Z,80.88
2023-02-08T20:12:08.617Z,80.56
2023-02-08T20:14:50.411Z,81.36
2023-02-08T20:17:19.131Z,81.35
2023-02-08T20:19:48.108Z,81.26
2023-02-08T20:22:17.254Z,81.67
2023-02-08T20:24:46.296Z,81.65
2023-02-08T20:27:19.911Z,81.74
2023-02-08T20:29:50.743Z,81.36
2023-02-08T20:32:22.604Z,81.29
2023-02-08T20:34:59.788Z,81.63
2023-02-08T20:37:31.302Z,81.98
2023-02-08T20:40:00.160Z,81.36
2023-02-08T20:42:31.126Z,81.38
2023-02-08T20:45:01.129Z,81.93
2023-02-08T20:47:33.900Z,81.38
2023-02-08T20:50:17.938Z,81.56
2023-02-08T20:52:49.426Z,81.78
2023-02-08T20:55:18.436Z,82.20
2023-02-08T20:57:47.184Z,82.09
2023-02-08T21:00:17.717Z,82.72
2023-02-08T21:02:46.869Z,83.12
2023-02-08T21:05:15.418Z,82.99
2023-02-08T21:07:44.248Z,83.22
2023-02-08T21:10:12.822Z,83.04
2023-02-08T21:12:41.534Z,82.67
2023-02-08T21:15:11.247Z,82.88
2023-02-08T21:17:41.476Z,83.63
2023-02-08T21:20:12.157Z,83.56
2023-02-08T21:22:40.524Z,83.55
2023-02-08T21:25:14.784Z,83.90
2023-02-08T21:27:46.652Z,83.85
2023-02-08T21:30:15.668Z,84.32
2023-02-08T21:32:46.242Z,84.28
2023-02-08T21:35:15.776Z,83.70
2023-02-08T21:37:44.344Z,84.10
2023-02-08T21:40:13.223Z,84.11
2023-02-08T21:42:45.091Z,84.24
2023-02-08T21:45:14.818Z,84.51
2023-02-08T21:47:46.387Z,84.67
2023-02-08T21:50:34.246Z,85.52
2023-02-08T21:53:20.079Z,86.43
2023-02-08T21:55:49.243Z,87.15
2023-02-08T21:58:18.210Z,87.04
2023-02-08T22:00:46.959Z,87.47
2023-02-08T22:03:18.651Z,87.43
2023-02-08T22:06:06.331Z,87.76
2023-02-08T22:08:35.188Z,88.02
2023-02-08T22:11:04.913Z,88.15
2023-02-08T22:13:33.855Z,88.38
2023-02-08T22:16:02.692Z,87.83
2023-02-08T22:18:30.985Z,88.25
2023-02-08T22:21:01.395Z,88.79
2023-02-08T22:23:30.133Z,88.11
2023-02-08T22:25:58.907Z,87.48
2023-02-08T22:28:27.524Z,88.09
2023-02-08T22:30:57.168Z,89.02
2023-02-08T22:33:32.452Z,88.22
2023-02-08T22:36:02.482Z,88.70
2023-02-08T22:38:31.305Z,88.95
2023-02-08T22:41:02.034Z,88.85
2023-02-08T22:43:31.308Z,90.18
2023-02-08T22:46:02.940Z,90.58
2023-02-08T22:48:34.293Z,91.54
2023-02-08T22:51:08.827Z,91.43
2023-02-08T22:53:37.520Z,92.34
2023-02-08T22:56:06.930Z,92.97
2023-02-08T22:58:43.489Z,93.14
2023-02-08T23:01:12.638Z,93.04
2023-02-08T23:03:47.190Z,92.62
2023-02-08T23:06:18.337Z,92.71
2023-02-08T23:08:48.364Z,93.30
2023-02-08T23:11:17.424Z,92.98
2023-02-08T23:13:46.231Z,92.91
2023-02-08T23:16:15.360Z,92.96
2023-02-08T23:18:44.240Z,93.54
2023-02-08T23:21:15.511Z,94.04
2023-02-08T23:23:46.538Z,93.57
2023-02-08T23:26:16.797Z,94.45
2023-02-08T23:28:45.774Z,94.91
2023-02-08T23:31:16.737Z,94.76
2023-02-08T23:33:45.679Z,95.86
2023-02-08T23:36:18.376Z,95.76
2023-02-08T23:38:48.473Z,96.40
2023-02-08T23:41:19.287Z,96.29
2023-02-08T23:43:48.613Z,96.40
2023-02-08T23:46:19.161Z,97.17
2023-02-08T23:48:48.870Z,96.76
2023-02-08T23:51:19.153Z,97.10
2023-02-08T23:53:49.485Z,97.28
2023-02-08T23:56:19.948Z,96.47
2023-02-08T23:58:51.333Z,96.72
